Time;durP1;ratioP1;P1;durP2;ratioP2;P2;SDS_P1;SDS_P2;PMS_P1;PMS_P2;Temp;Humidity;BMP_temperature;BMP_pressure;BME280_temperature;BME280_humidity;BME280_pressure;Samples;Min_cycle;Max_cycle;Signal;HPM_P1;HPM_P2
2021/06/26 00:01:43;;;;;;;8.40;6.97;;;;;;;11.12;84.04;91081.50;4955577;28;20384;-88
2021/06/26 00:04:17;;;;;;;9.15;6.93;;;;;;;11.12;83.84;91104.22;4955738;28;20037;-86
2021/06/26 00:06:48;;;;;;;8.38;6.15;;;;;;;11.11;83.67;91079.22;4963371;28;20034;-86
2021/06/26 00:09:14;;;;;;;7.97;6.18;;;;;;;11.13;83.45;91083.03;4958307;28;20038;-87
2021/06/26 00:11:46;;;;;;;10.25;6.03;;;;;;;11.12;83.38;91094.53;4958236;28;20018;-87
2021/06/26 00:14:14;;;;;;;7.78;5.97;;;;;;;11.08;83.48;91095.50;4973486;28;20030;-87
2021/06/26 00:16:40;;;;;;;11.23;6.07;;;;;;;11.14;83.57;91096.84;4939433;28;20022;-87
2021/06/26 00:19:10;;;;;;;12.02;6.10;;;;;;;11.05;83.96;91093.56;4955684;28;20062;-87
2021/06/26 00:21:37;;;;;;;10.02;6.22;;;;;;;11.07;83.60;91080.97;4939832;28;20034;-88
2021/06/26 00:24:05;;;;;;;9.27;6.25;;;;;;;11.05;84.17;91096.16;4963787;28;20484;-87
2021/06/26 00:26:37;;;;;;;9.63;5.82;;;;;;;11.09;83.66;91089.22;4958332;28;20061;-87
2021/06/26 00:29:09;;;;;;;8.88;6.68;;;;;;;11.05;83.65;91085.72;4970455;28;20026;-87
2021/06/26 00:31:36;;;;;;;9.65;6.32;;;;;;;11.04;83.90;91087.59;4970761;28;20493;-87
2021/06/26 00:34:04;;;;;;;8.05;6.22;;;;;;;10.98;84.03;91084.41;4955338;28;20037;-87
2021/06/26 00:36:38;;;;;;;8.52;6.50;;;;;;;10.98;83.97;91086.28;4971246;28;20027;-87
2021/06/26 00:39:14;;;;;;;11.25;6.97;;;;;;;10.98;83.75;91083.66;4954580;28;20043;-87
2021/06/26 00:41:43;;;;;;;9.82;6.57;;;;;;;10.93;84.09;91083.88;4971451;28;20035;-87
2021/06/26 00:44:09;;;;;;;9.05;6.60;;;;;;;10.97;83.92;91082.91;4955436;28;20046;-87
2021/06/26 00:46:42;;;;;;;7.82;5.97;;;;;;;10.94;83.73;91078.34;4939385;28;20101;-87
2021/06/26 00:49:16;;;;;;;8.65;5.95;;;;;;;10.88;83.83;91074.41;4958209;28;20027;-87
2021/06/26 00:51:42;;;;;;;12.15;6.35;;;;;;;10.77;84.02;91073.31;4939227;28;20027;-87
2021/06/26 00:54:13;;;;;;;7.55;5.85;;;;;;;10.70;84.33;91070.50;4986815;28;20026;-87
2021/06/26 00:56:49;;;;;;;7.22;6.00;;;;;;;10.67;84.23;91071.13;4996217;28;20038;-87
2021/06/26 00:59:17;;;;;;;7.22;5.78;;;;;;;10.73;84.08;91067.25;4996427;28;20048;-86
2021/06/26 01:01:43;;;;;;;10.52;6.65;;;;;;;10.67;84.37;91068.53;4985918;28;20035;-87
2021/06/26 01:04:16;;;;;;;8.43;6.22;;;;;;;10.65;84.43;91055.09;4957839;28;20030;-85
2021/06/26 01:06:47;;;;;;;11.13;6.38;;;;;;;10.64;84.08;91064.00;4958143;28;20026;-86
2021/06/26 01:09:13;;;;;;;10.45;6.75;;;;;;;10.60;84.18;91053.47;4989427;28;20030;-85
2021/06/26 01:11:41;;;;;;;9.35;6.32;;;;;;;10.51;84.85;91053.53;5006889;28;20046;-85
2021/06/26 01:14:14;;;;;;;11.48;6.85;;;;;;;10.42;85.01;91058.06;4977846;28;20117;-86
2021/06/26 01:16:42;;;;;;;11.18;7.47;;;;;;;10.36;84.82;91048.97;4974614;28;20026;-86
2021/06/26 01:19:08;;;;;;;7.72;6.50;;;;;;;10.25;84.50;91047.81;4973698;28;20026;-86
2021/06/26 01:21:42;;;;;;;11.27;6.22;;;;;;;10.17;84.26;91038.22;4989853;28;20034;-86
2021/06/26 01:24:09;;;;;;;7.43;5.57;;;;;;;10.16;83.92;91047.88;4954496;28;20129;-86
2021/06/26 01:26:36;;;;;;;7.95;6.07;;;;;;;10.17;84.04;91048.66;4953668;28;20034;-86
2021/06/26 01:29:14;;;;;;;6.03;5.30;;;;;;;10.16;84.00;91049.75;4989921;28;20531;-86
2021/06/26 01:31:41;;;;;;;8.18;5.72;;;;;;;10.19;84.02;91046.50;4990060;28;20156;-85
2021/06/26 01:34:10;;;;;;;7.53;5.45;;;;;;;10.04;84.24;91047.88;4990152;28;20408;-86
2021/06/26 01:36:42;;;;;;;7.00;5.30;;;;;;;9.96;84.18;91046.84;4977367;28;20026;-86
2021/06/26 01:39:09;;;;;;;6.97;5.63;;;;;;;9.95;84.45;91052.38;4960947;28;20488;-87
2021/06/26 01:41:41;;;;;;;9.05;5.68;;;;;;;9.87;85.00;91046.16;4976187;28;20112;-86
2021/06/26 01:44:09;;;;;;;13.13;6.60;;;;;;;9.89;84.64;91041.41;4977691;28;20068;-86
2021/06/26 01:46:38;;;;;;;7.13;5.88;;;;;;;9.91;84.73;91041.84;4961144;28;20022;-85
2021/06/26 01:49:09;;;;;;;11.00;6.15;;;;;;;9.81;84.91;91048.19;4961385;28;20434;-84
2021/06/26 01:51:36;;;;;;;9.75;6.80;;;;;;;9.87;84.58;91043.56;4976778;28;20076;-87
2021/06/26 01:54:08;;;;;;;9.45;6.82;;;;;;;9.84;84.61;91043.44;4977128;28;20110;-86
2021/06/26 01:56:40;;;;;;;12.05;7.63;;;;;;;9.78;84.85;91038.41;4961168;28;20050;-86
2021/06/26 01:59:06;;;;;;;13.20;8.30;;;;;;;9.78;85.22;91027.25;4960510;28;20026;-86
2021/06/26 02:01:37;;;;;;;10.88;8.00;;;;;;;9.72;85.65;91023.34;4960147;28;20032;-86
2021/06/26 02:04:09;;;;;;;11.93;7.53;;;;;;;9.76;86.03;91021.63;4976640;28;20109;-85
2021/06/26 02:06:37;;;;;;;14.88;8.48;;;;;;;9.96;85.31;91026.00;4977064;28;20031;-87
2021/06/26 02:09:07;;;;;;;13.57;8.35;;;;;;;9.73;84.69;91017.06;4976741;28;20018;-87
2021/06/26 02:11:42;;;;;;;10.77;6.88;;;;;;;9.58;84.60;91011.34;4976919;28;20034;-86
2021/06/26 02:14:12;;;;;;;8.20;5.57;;;;;;;9.46;84.97;91010.53;4977116;28;20026;-87
2021/06/26 02:16:42;;;;;;;9.88;5.40;;;;;;;9.56;84.50;91023.91;4960773;28;20077;-86
2021/06/26 02:19:17;;;;;;;10.18;6.13;;;;;;;9.37;84.85;91005.41;4976838;28;20030;-85
2021/06/26 02:21:45;;;;;;;9.98;5.60;;;;;;;9.34;85.35;91008.63;5037130;23;20543;-84
2021/06/26 02:24:14;;;;;;;7.85;6.25;;;;;;;9.38;84.99;91009.53;4996212;28;20025;-85
2021/06/26 02:26:45;;;;;;;7.57;5.82;;;;;;;9.44;84.45;91017.91;4996233;28;20109;-84
2021/06/26 02:29:15;;;;;;;9.77;6.55;;;;;;;9.33;84.84;91018.28;4980710;28;20022;-82
2021/06/26 02:31:44;;;;;;;9.68;7.00;;;;;;;9.20;85.40;91016.69;4995611;28;20026;-86
2021/06/26 02:34:22;;;;;;;9.40;6.88;;;;;;;9.15;85.82;91018.69;4996166;28;20017;-85
2021/06/26 02:36:49;;;;;;;12.00;6.70;;;;;;;9.13;85.50;91015.66;4965103;28;20105;-84
2021/06/26 02:39:17;;;;;;;8.63;6.30;;;;;;;9.16;85.02;91020.25;4963193;28;20030;-84
2021/06/26 02:41:50;;;;;;;11.32;7.03;;;;;;;9.18;85.35;91015.47;4995753;28;20057;-84
2021/06/26 02:44:16;;;;;;;12.75;6.75;;;;;;;9.13;85.04;91021.63;4995644;28;20095;-84
2021/06/26 02:46:45;;;;;;;10.57;7.03;;;;;;;9.14;85.47;91017.19;4978049;28;20495;-85
2021/06/26 02:49:19;;;;;;;9.10;7.28;;;;;;;9.14;85.45;91014.59;4995654;28;20072;-83
2021/06/26 02:51:48;;;;;;;12.30;7.60;;;;;;;9.14;85.84;91004.94;4979652;28;20439;-84
2021/06/26 02:54:15;;;;;;;12.90;9.20;;;;;;;9.21;85.96;91005.19;4979107;28;20033;-84
2021/06/26 02:56:45;;;;;;;14.80;10.20;;;;;;;9.20;86.38;91008.13;4995287;28;20025;-84
2021/06/26 02:59:21;;;;;;;14.02;8.85;;;;;;;9.16;86.38;91002.81;4979252;28;20030;-84
2021/06/26 03:01:47;;;;;;;10.95;8.90;;;;;;;9.28;85.85;91004.69;4996360;28;20021;-85
2021/06/26 03:04:14;;;;;;;13.57;8.98;;;;;;;9.24;86.06;90998.63;4979446;28;20537;-85
2021/06/26 03:06:40;;;;;;;11.68;7.50;;;;;;;9.23;86.03;91000.47;4995505;28;20505;-83
2021/06/26 03:09:15;;;;;;;10.45;7.68;;;;;;;9.28;85.98;90996.91;4994153;28;20018;-83
2021/06/26 03:11:40;;;;;;;11.70;8.20;;;;;;;9.29;86.39;90993.22;4976568;28;20062;-84
2021/06/26 03:14:17;;;;;;;9.93;7.50;;;;;;;9.34;86.24;90998.22;4975942;28;20034;-85
2021/06/26 03:16:49;;;;;;;11.88;8.15;;;;;;;9.37;86.10;90995.00;4993005;28;20026;-84
2021/06/26 03:19:17;;;;;;;9.45;7.30;;;;;;;9.44;85.66;91004.91;4964659;28;20023;-83
2021/06/26 03:21:51;;;;;;;10.70;7.90;;;;;;;9.40;85.08;91002.19;4956012;28;20062;-85
2021/06/26 03:24:27;;;;;;;11.02;8.38;;;;;;;9.39;85.55;91007.69;4941689;28;20026;-85
2021/06/26 03:26:55;;;;;;;11.30;8.10;;;;;;;9.41;85.89;91005.53;4988430;28;20027;-85
2021/06/26 03:29:30;;;;;;;9.68;7.53;;;;;;;9.45;86.35;90999.38;4940729;28;20034;-85
2021/06/26 03:32:04;;;;;;;13.32;8.65;;;;;;;9.47;86.35;90994.63;4941016;28;20485;-85
2021/06/26 03:34:34;;;;;;;10.38;8.30;;;;;;;9.52;86.22;90994.41;4940866;28;20092;-85
2021/06/26 03:37:05;;;;;;;13.15;7.40;;;;;;;9.55;85.99;90993.78;4940149;28;20027;-84
2021/06/26 03:39:35;;;;;;;10.43;7.60;;;;;;;9.54;85.51;90999.28;4940828;28;20035;-85
2021/06/26 03:42:06;;;;;;;10.20;7.82;;;;;;;9.48;85.91;90996.13;4923949;28;20031;-85
2021/06/26 03:44:41;;;;;;;10.77;7.88;;;;;;;9.54;85.95;91009.69;4955957;28;20505;-85
2021/06/26 03:47:08;;;;;;;10.57;7.13;;;;;;;9.56;86.10;90997.13;4956004;28;20118;-86
2021/06/26 03:49:37;;;;;;;11.40;7.82;;;;;;;9.59;86.16;91004.31;4945717;28;20054;-85
2021/06/26 03:52:09;;;;;;;11.30;7.95;;;;;;;9.65;86.04;91000.44;4957314;28;20117;-85
2021/06/26 03:54:41;;;;;;;11.27;8.20;;;;;;;9.82;85.77;90997.69;4940029;28;20114;-85
2021/06/26 03:57:09;;;;;;;13.77;9.20;;;;;;;9.79;86.57;91006.13;4940151;28;20114;-85
2021/06/26 03:59:35;;;;;;;11.55;7.88;;;;;;;9.89;86.12;91004.19;4939398;28;20420;-86
2021/06/26 04:02:08;;;;;;;10.35;7.68;;;;;;;9.78;86.42;91009.78;4939810;28;20496;-85
2021/06/26 04:04:38;;;;;;;13.73;7.72;;;;;;;9.83;86.63;91014.06;4955867;28;20030;-85
2021/06/26 04:07:05;;;;;;;13.63;8.73;;;;;;;10.03;86.44;91015.88;4956099;28;20073;-85
2021/06/26 04:09:39;;;;;;;14.98;8.60;;;;;;;10.07;86.95;91021.19;4956701;28;20117;-85
2021/06/26 04:12:13;;;;;;;9.20;7.00;;;;;;;10.19;86.70;91020.44;4924747;28;20027;-84
2021/06/26 04:14:40;;;;;;;11.93;7.65;;;;;;;10.31;85.30;91020.50;4939558;28;20035;-84
2021/06/26 04:17:15;;;;;;;9.43;6.97;;;;;;;10.32;86.27;91006.41;4955492;28;20037;-85
2021/06/26 04:19:45;;;;;;;10.57;7.88;;;;;;;10.36;86.12;91012.50;4971961;28;20027;-85
2021/06/26 04:22:12;;;;;;;10.18;7.85;;;;;;;10.39;86.72;91006.63;4955183;28;20129;-85
2021/06/26 04:24:42;;;;;;;10.18;7.55;;;;;;;10.46;86.19;91009.47;4940712;28;20076;-85
2021/06/26 04:27:14;;;;;;;10.75;8.00;;;;;;;10.55;85.85;91009.34;4969094;28;20026;-85
2021/06/26 04:29:45;;;;;;;15.35;8.70;;;;;;;10.62;86.42;91016.63;4963089;28;20093;-85
2021/06/26 04:32:14;;;;;;;12.30;8.35;;;;;;;10.69;86.29;91014.25;4939286;28;20045;-85
2021/06/26 04:34:48;;;;;;;9.93;7.65;;;;;;;10.73;86.91;91022.94;4955441;28;20031;-85
2021/06/26 04:37:23;;;;;;;10.48;7.80;;;;;;;10.76;86.23;91010.00;4954547;28;20089;-85
2021/06/26 04:39:50;;;;;;;10.63;7.88;;;;;;;10.75;86.28;91018.16;4971976;28;20034;-85
2021/06/26 04:42:21;;;;;;;10.98;7.88;;;;;;;10.88;86.31;91017.06;4938929;28;20019;-85
2021/06/26 04:44:58;;;;;;;13.65;9.50;;;;;;;10.88;87.29;91022.28;4939769;28;20497;-85
2021/06/26 04:47:26;;;;;;;12.73;8.85;;;;;;;10.92;86.85;91028.38;4940159;28;20588;-85
2021/06/26 04:49:54;;;;;;;16.02;9.80;;;;;;;11.01;87.73;91021.19;4939297;28;20510;-85
2021/06/26 04:52:25;;;;;;;16.98;10.95;;;;;;;11.11;87.73;91025.22;4954773;28;20037;-85
2021/06/26 04:55:00;;;;;;;17.00;10.90;;;;;;;11.14;88.00;91029.00;4946237;28;20030;-85
2021/06/26 04:57:27;;;;;;;18.27;10.70;;;;;;;11.17;88.38;91028.38;4942763;28;20526;-85
2021/06/26 05:00:02;;;;;;;20.45;11.02;;;;;;;11.26;88.09;91029.00;4973934;28;20030;-85
2021/06/26 05:02:30;;;;;;;20.20;11.40;;;;;;;11.32;88.21;91035.50;4974471;28;20057;-85
2021/06/26 05:04:57;;;;;;;19.10;11.90;;;;;;;11.35;88.31;91026.28;4957842;28;20519;-86
2021/06/26 05:07:28;;;;;;;29.13;12.82;;;;;;;11.43;87.90;91036.56;4973993;28;20032;-85
2021/06/26 05:10:02;;;;;;;19.13;11.40;;;;;;;11.54;87.65;91025.69;4943175;28;20022;-86
2021/06/26 05:12:29;;;;;;;18.40;11.75;;;;;;;11.54;87.60;91018.59;4945891;28;20030;-85
2021/06/26 05:14:56;;;;;;;18.02;11.05;;;;;;;11.66;87.37;91028.25;4977807;28;20034;-85
2021/06/26 05:17:31;;;;;;;15.45;9.80;;;;;;;11.68;86.99;91019.00;4977634;28;20026;-86
2021/06/26 05:19:58;;;;;;;21.17;12.48;;;;;;;11.72;86.61;91022.47;4977359;28;20054;-85
2021/06/26 05:22:28;;;;;;;18.60;12.18;;;;;;;11.86;85.78;91022.13;4942824;28;20026;-85
2021/06/26 05:24:55;;;;;;;21.88;12.38;;;;;;;11.94;86.02;91018.63;4981400;28;20025;-85
2021/06/26 05:27:31;;;;;;;19.17;11.45;;;;;;;12.04;85.25;91021.81;4996900;28;20032;-85
2021/06/26 05:30:04;;;;;;;17.25;11.23;;;;;;;12.07;85.47;91024.53;4987947;28;20519;-85
2021/06/26 05:32:34;;;;;;;19.73;11.48;;;;;;;12.16;85.18;91025.16;4977718;28;20034;-85
2021/06/26 05:35:02;;;;;;;19.10;11.43;;;;;;;12.23;85.10;91029.81;4977510;28;20030;-85
2021/06/26 05:37:35;;;;;;;17.13;10.23;;;;;;;12.28;85.18;91024.31;4962007;28;20286;-85
2021/06/26 05:40:03;;;;;;;19.02;11.00;;;;;;;12.32;84.91;91027.78;4961149;28;20030;-85
2021/06/26 05:42:30;;;;;;;17.45;11.25;;;;;;;12.38;84.27;91030.91;4977589;28;20022;-85
2021/06/26 05:45:06;;;;;;;16.88;10.20;;;;;;;12.35;83.91;91027.13;4958538;28;20064;-85
2021/06/26 05:47:33;;;;;;;17.50;10.77;;;;;;;12.44;83.48;91034.81;4942839;28;20026;-85
2021/06/26 05:50:01;;;;;;;19.60;10.85;;;;;;;12.53;82.21;91024.94;4925939;28;20037;-85
2021/06/26 05:52:32;;;;;;;18.33;11.60;;;;;;;12.43;82.94;91023.56;4942633;28;20106;-85
2021/06/26 05:54:58;;;;;;;18.52;11.65;;;;;;;12.55;82.61;91019.38;4957967;28;20030;-85
2021/06/26 05:57:30;;;;;;;19.60;11.27;;;;;;;12.66;82.65;91025.63;4957945;28;20551;-85
2021/06/26 06:00:03;;;;;;;16.73;10.70;;;;;;;12.67;82.26;91027.13;4957572;28;20034;-85
2021/06/26 06:02:30;;;;;;;16.35;10.18;;;;;;;12.74;82.19;91024.69;4942215;28;20545;-86
2021/06/26 06:04:57;;;;;;;18.20;11.32;;;;;;;12.73;82.01;91031.03;4957835;28;20038;-85
2021/06/26 06:07:29;;;;;;;18.60;11.02;;;;;;;12.77;82.43;91016.19;4957403;28;20106;-86
2021/06/26 06:09:58;;;;;;;19.38;12.20;;;;;;;12.82;82.18;91012.53;4957128;28;20023;-85
2021/06/26 06:12:24;;;;;;;21.23;11.48;;;;;;;12.92;82.23;91028.47;4958275;28;20023;-85
2021/06/26 06:14:56;;;;;;;16.92;10.80;;;;;;;13.18;82.26;91021.97;4941491;28;20081;-86
2021/06/26 06:17:25;;;;;;;16.65;10.25;;;;;;;13.49;80.90;91023.75;4957441;28;20027;-86
2021/06/26 06:19:53;;;;;;;18.55;10.98;;;;;;;13.51;79.71;91026.81;4957436;28;20022;-86
2021/06/26 06:22:20;;;;;;;20.63;11.23;;;;;;;13.46;80.31;91021.06;4956961;28;20027;-85
2021/06/26 06:24:53;;;;;;;20.60;11.38;;;;;;;13.58;79.61;91018.34;4959279;28;20034;-85
2021/06/26 06:27:25;;;;;;;18.15;10.52;;;;;;;13.63;79.58;91015.44;4977167;28;20030;-85
2021/06/26 06:29:52;;;;;;;18.83;11.10;;;;;;;13.69;79.37;91014.06;4961012;28;20060;-86
2021/06/26 06:32:27;;;;;;;20.20;11.45;;;;;;;13.50;80.29;91019.28;4976550;28;20487;-85
2021/06/26 06:34:57;;;;;;;17.25;10.88;;;;;;;13.39;80.51;91025.06;4961548;28;20488;-86
2021/06/26 06:37:31;;;;;;;24.42;12.32;;;;;;;13.38;81.00;91023.53;4976414;28;20399;-86
2021/06/26 06:40:05;;;;;;;22.73;14.00;;;;;;;13.53;81.18;91023.84;4977383;28;20515;-85
2021/06/26 06:42:37;;;;;;;22.05;12.70;;;;;;;13.72;79.59;91016.00;4944744;28;20392;-85
2021/06/26 06:45:05;;;;;;;24.80;13.98;;;;;;;13.85;79.46;91019.25;4974677;28;20125;-85
2021/06/26 06:47:38;;;;;;;26.10;13.38;;;;;;;13.91;79.30;91024.97;4976456;28;20045;-85
2021/06/26 06:50:07;;;;;;;21.53;13.23;;;;;;;13.82;79.12;91030.44;4995397;28;20026;-85
2021/06/26 06:52:33;;;;;;;22.63;13.38;;;;;;;14.06;78.69;91026.75;4995360;28;20033;-85
2021/06/26 06:55:04;;;;;;;22.35;12.68;;;;;;;14.02;78.94;91028.53;4965096;28;20034;-84
2021/06/26 06:57:34;;;;;;;19.73;12.20;;;;;;;14.38;79.50;91034.44;4960633;28;20045;-88
2021/06/26 07:00:04;;;;;;;19.92;11.27;;;;;;;14.42;76.94;91025.56;4975189;28;20030;-85
2021/06/26 07:02:32;;;;;;;19.67;11.63;;;;;;;14.34;77.47;91029.13;4959721;28;20034;-85
2021/06/26 07:05:00;;;;;;;19.98;11.88;;;;;;;14.23;76.92;91026.31;4959661;28;20195;-84
2021/06/26 07:07:31;;;;;;;20.58;11.93;;;;;;;14.15;77.97;91029.94;4975591;28;20272;-85
2021/06/26 07:10:03;;;;;;;17.77;11.27;;;;;;;14.27;77.03;91032.38;4975600;28;20022;-85
2021/06/26 07:12:30;;;;;;;16.95;11.05;;;;;;;14.23;77.05;91031.56;4975836;28;20076;-85
2021/06/26 07:15:04;;;;;;;18.33;10.85;;;;;;;14.35;76.92;91044.53;4993493;28;20041;-87
2021/06/26 07:17:35;;;;;;;18.95;11.07;;;;;;;14.42;76.83;91040.53;4962179;28;20026;-86
2021/06/26 07:20:01;;;;;;;18.55;11.32;;;;;;;14.43;76.40;91024.44;4976583;28;20060;-85
2021/06/26 07:22:31;;;;;;;15.63;10.00;;;;;;;14.43;76.49;91031.56;4976269;28;20022;-85
2021/06/26 07:25:01;;;;;;;13.75;9.45;;;;;;;14.50;75.88;91031.69;4990642;28;20019;-85
2021/06/26 07:27:27;;;;;;;16.75;10.20;;;;;;;14.45;75.70;91034.56;4973903;28;20157;-86
2021/06/26 07:29:53;;;;;;;15.68;9.73;;;;;;;14.43;75.86;91042.03;4956494;28;20034;-86
2021/06/26 07:32:18;;;;;;;14.77;9.60;;;;;;;14.62;76.18;91036.78;4954473;28;20035;-86
2021/06/26 07:34:45;;;;;;;15.70;10.32;;;;;;;14.70;75.76;91038.41;4959283;28;20034;-86
2021/06/26 07:37:13;;;;;;;17.38;9.23;;;;;;;14.88;75.32;91041.34;4976190;28;20049;-85
2021/06/26 07:39:39;;;;;;;15.00;8.93;;;;;;;14.76;74.42;91036.25;4975301;28;20026;-84
2021/06/26 07:42:06;;;;;;;12.50;8.43;;;;;;;14.97;75.10;91033.22;4993085;28;20026;-85
2021/06/26 07:44:36;;;;;;;13.40;8.27;;;;;;;15.07;74.14;91037.88;4975679;28;20034;-85
2021/06/26 07:47:03;;;;;;;12.13;8.32;;;;;;;15.17;74.93;91036.53;4960054;28;20026;-87
2021/06/26 07:49:31;;;;;;;14.85;8.35;;;;;;;15.26;72.87;91035.19;4974984;28;20489;-85
2021/06/26 07:51:57;;;;;;;12.52;8.68;;;;;;;15.28;73.13;91043.44;4975719;28;20030;-86
2021/06/26 07:54:28;;;;;;;13.30;8.63;;;;;;;15.31;73.88;91031.47;4974978;28;20109;-85
2021/06/26 07:56:55;;;;;;;11.35;7.13;;;;;;;15.43;72.80;91035.75;4959565;28;20148;-85
2021/06/26 07:59:20;;;;;;;11.82;7.93;;;;;;;15.42;72.73;91029.75;4992868;28;20481;-86
2021/06/26 08:01:48;;;;;;;12.60;7.95;;;;;;;15.48;72.99;91028.34;4943217;28;20080;-85
2021/06/26 08:04:14;;;;;;;12.30;7.65;;;;;;;15.52;72.22;91026.53;4993166;28;20523;-85
2021/06/26 08:06:41;;;;;;;11.32;6.45;;;;;;;15.72;72.76;91014.06;4974803;28;20030;-85
2021/06/26 08:09:07;;;;;;;9.27;6.90;;;;;;;15.72;72.68;91014.06;4976078;28;20082;-85
2021/06/26 08:11:33;;;;;;;9.65;6.57;;;;;;;15.72;70.16;91018.53;4959211;28;20488;-85
2021/06/26 08:14:02;;;;;;;9.15;6.18;;;;;;;15.74;71.57;91014.44;4943427;28;20092;-86
2021/06/26 08:16:27;;;;;;;10.05;6.82;;;;;;;15.75;70.92;91015.94;4975698;28;20022;-85
2021/06/26 08:18:53;;;;;;;9.20;6.13;;;;;;;15.82;70.70;91017.91;4970279;28;20133;-86
2021/06/26 08:21:22;;;;;;;10.52;6.55;;;;;;;15.79;70.38;91021.25;5009430;23;20048;-87
2021/06/26 08:23:49;;;;;;;9.25;5.88;;;;;;;15.81;70.42;91010.41;5014298;28;20095;-87
2021/06/26 08:26:14;;;;;;;10.68;6.40;;;;;;;16.03;70.34;91006.91;4992934;28;20458;-87
2021/06/26 08:28:40;;;;;;;9.20;5.97;;;;;;;16.16;69.52;91016.06;4997699;28;20018;-87
2021/06/26 08:31:06;;;;;;;8.70;5.78;;;;;;;16.14;68.66;91012.28;5031551;28;20399;-88
2021/06/26 08:33:31;;;;;;;9.52;5.55;;;;;;;16.29;69.05;91010.53;5022360;28;20056;-88
2021/06/26 08:35:57;;;;;;;8.20;5.57;;;;;;;16.38;65.96;91011.03;4994398;28;20060;-87
2021/06/26 08:38:22;;;;;;;8.68;5.25;;;;;;;16.41;65.87;91005.06;5011491;28;20017;-87
2021/06/26 08:40:52;;;;;;;10.23;5.80;;;;;;;16.17;65.86;91007.06;5012187;28;20112;-87
2021/06/26 08:43:18;;;;;;;7.45;5.05;;;;;;;16.47;64.81;90998.34;5013769;28;20030;-87
2021/06/26 08:45:43;;;;;;;7.43;4.93;;;;;;;16.52;64.48;91005.91;5016023;28;20091;-90
2021/06/26 08:48:09;;;;;;;7.25;5.40;;;;;;;16.47;65.33;90998.34;5014936;28;20033;-86
2021/06/26 08:50:36;;;;;;;7.25;5.05;;;;;;;16.57;66.10;91005.59;5014475;28;20096;-88
2021/06/26 08:53:02;;;;;;;7.07;4.93;;;;;;;16.72;64.97;91001.97;4998819;28;20069;-88
2021/06/26 08:55:28;;;;;;;7.82;5.30;;;;;;;16.73;64.75;91000.06;5015237;28;20094;-85
2021/06/26 08:57:53;;;;;;;7.43;5.15;;;;;;;16.73;66.30;91008.72;5014943;28;20037;-85
2021/06/26 09:00:21;;;;;;;7.63;4.85;;;;;;;16.90;65.53;90996.13;5033664;28;20056;-85
2021/06/26 09:02:53;;;;;;;7.00;5.13;;;;;;;16.68;64.54;91001.19;5034378;28;20085;-85
2021/06/26 09:05:27;;;;;;;6.78;4.65;;;;;;;16.69;63.63;90989.53;5016933;28;20049;-85
2021/06/26 09:08:09;;;;;;;7.65;4.40;;;;;;;16.83;64.77;90993.44;5015086;28;20025;-84
2021/06/26 09:10:36;;;;;;;8.52;5.18;;;;;;;16.75;63.06;90976.84;5016015;28;20108;-85
2021/06/26 09:13:17;;;;;;;7.85;5.03;;;;;;;16.36;64.80;90986.94;5014849;28;20033;-85
2021/06/26 09:15:44;;;;;;;6.38;4.22;;;;;;;16.67;65.25;90985.75;5021260;28;20391;-84
2021/06/26 09:18:21;;;;;;;5.82;4.10;;;;;;;17.19;64.53;90971.50;5032000;28;20105;-85
2021/06/26 09:20:51;;;;;;;5.60;4.10;;;;;;;17.52;63.19;90977.69;5018436;28;20037;-85
2021/06/26 09:23:34;;;;;;;5.88;4.60;;;;;;;17.56;64.07;90981.13;5021898;28;20030;-84
2021/06/26 09:26:11;;;;;;;6.38;4.22;;;;;;;17.67;62.67;90974.03;5026224;28;20051;-85
2021/06/26 09:28:46;;;;;;;4.45;3.67;;;;;;;17.79;61.51;90972.22;5033394;28;20021;-86
2021/06/26 09:31:16;;;;;;;5.18;3.47;;;;;;;17.97;58.18;90977.56;5025309;28;20025;-85
2021/06/26 09:33:54;;;;;;;4.85;3.58;;;;;;;18.28;60.71;90978.78;5045894;28;20030;-85
2021/06/26 09:36:22;;;;;;;6.00;3.60;;;;;;;18.24;61.08;90978.78;5013068;28;20057;-85
2021/06/26 09:39:07;;;;;;;5.20;3.60;;;;;;;17.94;58.63;90981.69;5013149;28;20026;-84
2021/06/26 09:41:33;;;;;;;5.68;3.90;;;;;;;17.71;59.19;90986.47;5012989;28;20030;-85
2021/06/26 09:44:11;;;;;;;4.18;3.58;;;;;;;17.55;59.64;90994.66;4996660;28;20036;-85
2021/06/26 09:46:44;;;;;;;5.32;3.67;;;;;;;17.50;59.66;90993.13;5012260;28;20034;-84
2021/06/26 09:49:14;;;;;;;7.32;3.90;;;;;;;17.60;59.63;90992.44;5012545;28;20022;-85
2021/06/26 09:51:41;;;;;;;4.72;3.45;;;;;;;17.40;59.33;90988.56;5012464;28;20061;-85
2021/06/26 09:54:10;;;;;;;4.93;3.28;;;;;;;17.44;59.42;90986.69;5012969;28;20160;-86
2021/06/26 09:56:40;;;;;;;3.85;3.30;;;;;;;18.06;61.35;90991.16;5012287;28;20022;-85
2021/06/26 09:59:07;;;;;;;4.45;3.05;;;;;;;18.43;58.74;90988.25;5012695;28;20026;-85
2021/06/26 10:01:36;;;;;;;3.88;3.10;;;;;;;18.51;55.66;90995.03;5012069;28;20030;-85
2021/06/26 10:04:05;;;;;;;3.35;2.78;;;;;;;18.77;55.01;90990.59;5012439;28;20449;-85
2021/06/26 10:06:38;;;;;;;3.65;2.55;;;;;;;19.11;57.97;90994.34;5012430;28;20030;-87
2021/06/26 10:09:05;;;;;;;3.88;3.13;;;;;;;18.79;56.74;90988.31;4996336;28;20026;-84
2021/06/26 10:11:39;;;;;;;4.05;3.20;;;;;;;18.48;56.30;90990.53;5012158;28;20061;-86
2021/06/26 10:14:06;;;;;;;4.00;2.70;;;;;;;18.60;57.47;90992.78;5012330;28;20029;-85
2021/06/26 10:16:32;;;;;;;4.22;3.03;;;;;;;18.62;59.15;90989.78;5012347;28;20025;-86
2021/06/26 10:19:03;;;;;;;3.67;2.75;;;;;;;18.76;56.80;90994.34;4995739;28;20029;-86
2021/06/26 10:21:38;;;;;;;5.35;3.40;;;;;;;18.34;56.23;90991.25;5011635;28;20025;-85
2021/06/26 10:24:17;;;;;;;4.03;2.80;;;;;;;18.31;57.67;90983.31;4992291;28;20511;-85
2021/06/26 10:26:44;;;;;;;4.25;3.22;;;;;;;18.44;58.96;90987.09;5029103;28;20064;-85
2021/06/26 10:29:15;;;;;;;7.22;3.50;;;;;;;18.25;59.23;90984.81;5015142;28;20024;-85
2021/06/26 10:31:43;;;;;;;4.63;2.92;;;;;;;18.33;56.23;90979.16;5032161;28;20048;-85
2021/06/26 10:34:16;;;;;;;4.00;3.15;;;;;;;18.17;55.93;90983.28;5031547;28;20021;-84
2021/06/26 10:36:50;;;;;;;3.13;2.70;;;;;;;18.09;56.31;90980.63;5032553;28;20484;-86
2021/06/26 10:39:19;;;;;;;3.22;2.60;;;;;;;18.15;55.35;90981.75;5031177;28;20075;-85
2021/06/26 10:42:07;;;;;;;4.53;2.85;;;;;;;18.10;55.17;90979.50;5015030;28;20491;-85
2021/06/26 10:44:50;;;;;;;3.80;2.40;;;;;;;18.18;58.11;90982.16;5032858;28;20060;-85
2021/06/26 10:47:17;;;;;;;3.67;2.63;;;;;;;18.28;56.77;90976.16;5030785;28;20106;-85
2021/06/26 10:49:44;;;;;;;4.28;2.50;;;;;;;18.26;56.97;90979.16;5014721;28;20040;-83
2021/06/26 10:52:19;;;;;;;3.13;2.40;;;;;;;18.49;58.17;90978.84;5031127;28;20029;-86
2021/06/26 10:54:55;;;;;;;4.22;2.67;;;;;;;18.36;57.06;90973.16;5030980;28;20037;-85
2021/06/26 10:57:24;;;;;;;3.40;2.80;;;;;;;18.30;56.63;90974.66;5031081;28;20430;-85
2021/06/26 11:00:01;;;;;;;3.45;2.60;;;;;;;18.58;56.43;90973.94;5031020;28;20710;-87
2021/06/26 11:02:43;;;;;;;3.28;2.58;;;;;;;19.10;57.67;90976.25;5030682;28;20124;-85
2021/06/26 11:05:12;;;;;;;2.83;2.20;;;;;;;19.25;53.64;90977.00;5031182;28;20028;-85
2021/06/26 11:07:42;;;;;;;3.00;2.60;;;;;;;19.49;53.14;90970.91;5046283;28;20487;-86
2021/06/26 11:10:17;;;;;;;2.92;2.17;;;;;;;19.54;55.37;90967.13;5030268;28;20495;-86
2021/06/26 11:12:45;;;;;;;2.65;2.10;;;;;;;19.83;54.14;90967.09;5014831;28;20047;-85
2021/06/26 11:15:15;;;;;;;3.50;2.15;;;;;;;20.31;53.44;90961.94;5030769;28;20112;-85
2021/06/26 11:17:45;;;;;;;2.70;2.30;;;;;;;20.28;50.74;90957.41;5030593;28;20025;-86
2021/06/26 11:20:18;;;;;;;2.67;2.28;;;;;;;20.70;52.74;90956.44;5030467;28;20049;-85
2021/06/26 11:22:59;;;;;;;4.55;2.40;;;;;;;20.50;51.19;90956.22;5016967;28;20034;-84
2021/06/26 11:25:27;;;;;;;3.30;2.35;;;;;;;20.66;53.28;90954.97;5007031;28;20549;-85
2021/06/26 11:28:05;;;;;;;4.03;2.40;;;;;;;20.71;49.80;90952.66;5031247;28;20021;-86
2021/06/26 11:30:35;;;;;;;3.75;2.15;;;;;;;20.86;49.09;90952.56;5030612;28;20048;-87
2021/06/26 11:33:02;;;;;;;2.83;2.20;;;;;;;21.03;52.77;90948.28;5030334;28;20407;-83
2021/06/26 11:35:33;;;;;;;3.78;2.42;;;;;;;20.58;48.92;90945.56;5035087;28;20068;-85
2021/06/26 11:38:07;;;;;;;2.60;2.17;;;;;;;20.39;48.84;90939.63;4994194;28;20673;-85
2021/06/26 11:40:36;;;;;;;3.35;2.22;;;;;;;20.50;47.59;90940.31;4984864;28;20026;-85
2021/06/26 11:43:08;;;;;;;2.83;2.40;;;;;;;20.85;47.14;90948.38;5002440;28;20030;-84